createdAt,value
2018-07-02T00:01:30.189Z,9.70
2018-07-02T00:04:09.424Z,9.70
2018-07-02T00:07:00.605Z,9.70
2018-07-02T00:09:42.804Z,9.60
2018-07-02T00:12:26.509Z,9.50
2018-07-02T00:15:02.867Z,9.50
2018-07-02T00:17:42.264Z,9.50
2018-07-02T00:23:33.817Z,9.40
2018-07-02T00:26:13.203Z,9.40
2018-07-02T00:28:51.463Z,9.30
2018-07-02T00:31:28.359Z,9.20
2018-07-02T00:34:05.589Z,9.20
2018-07-02T00:36:42.172Z,9.20
2018-07-02T00:39:22.770Z,9.20
2018-07-02T00:41:59.224Z,9.20
2018-07-02T00:44:37.707Z,9.30
2018-07-02T00:47:13.054Z,9.30
2018-07-02T00:49:50.872Z,9.40
2018-07-02T00:52:27.946Z,9.30
2018-07-02T00:55:03.330Z,9.30
2018-07-02T00:57:37.707Z,9.30
2018-07-02T01:00:17.167Z,9.30
2018-07-02T01:02:51.539Z,9.20
2018-07-02T01:05:25.847Z,9.20
2018-07-02T01:08:00.079Z,9.20
2018-07-02T01:10:34.416Z,9.20
2018-07-02T01:13:08.738Z,9.10
2018-07-02T01:15:44.098Z,9.00
2018-07-02T01:18:18.477Z,8.90
2018-07-02T01:20:52.692Z,8.80
2018-07-02T01:23:27.046Z,8.70
2018-07-02T01:26:01.381Z,8.70
2018-07-02T01:28:35.629Z,8.70
2018-07-02T01:31:09.978Z,8.70
2018-07-02T01:33:44.322Z,8.70
2018-07-02T01:36:19.515Z,8.60
2018-07-02T01:38:53.938Z,8.70
2018-07-02T01:41:31.479Z,8.70
2018-07-02T01:44:05.926Z,8.70
2018-07-02T01:46:40.327Z,8.70
2018-07-02T01:49:14.878Z,8.70
2018-07-02T01:51:59.965Z,8.70
2018-07-02T01:54:44.921Z,8.70
2018-07-02T01:57:22.362Z,8.60
2018-07-02T02:00:19.528Z,8.60
2018-07-02T02:03:03.846Z,8.60
2018-07-02T02:05:38.885Z,8.50
2018-07-02T02:08:17.513Z,8.50
2018-07-02T02:10:59.253Z,8.40
2018-07-02T02:13:33.539Z,8.40
2018-07-02T02:16:14.565Z,8.40
2018-07-02T02:18:53.802Z,8.40
2018-07-02T02:21:29.356Z,8.40
2018-07-02T02:24:03.904Z,8.40
2018-07-02T02:26:38.046Z,8.50
2018-07-02T02:29:13.423Z,8.50
2018-07-02T02:31:47.587Z,8.40
2018-07-02T02:34:26.794Z,8.40
2018-07-02T02:37:06.282Z,8.30
2018-07-02T02:39:47.359Z,8.30
2018-07-02T02:42:27.406Z,8.20
2018-07-02T02:45:12.344Z,8.20
2018-07-02T02:47:53.940Z,8.20
2018-07-02T03:00:52.194Z,8.20
2018-07-02T03:03:26.535Z,8.20
2018-07-02T03:06:00.920Z,8.30
2018-07-02T03:08:35.321Z,8.40
2018-07-02T03:11:10.471Z,8.40
2018-07-02T03:16:18.738Z,8.50
2018-07-02T03:18:52.965Z,8.60
2018-07-02T03:21:27.192Z,8.70
2018-07-02T03:24:01.505Z,8.80
2018-07-02T03:26:35.853Z,9.00
2018-07-02T03:29:10.195Z,9.10
2018-07-02T03:31:48.138Z,9.20
2018-07-02T03:34:23.592Z,9.30
2018-07-02T03:36:58.991Z,9.40
2018-07-02T03:39:34.170Z,9.50
2018-07-02T03:42:08.554Z,9.60
2018-07-02T03:44:42.844Z,9.80
2018-07-02T03:47:17.072Z,10.10
2018-07-02T03:52:26.270Z,10.60
2018-07-02T03:55:00.419Z,11.10
2018-07-02T03:57:35.642Z,12.10
2018-07-02T04:00:10.823Z,13.70
2018-07-02T04:02:45.752Z,15.50
2018-07-02T04:05:20.698Z,17.00
2018-07-02T04:07:55.699Z,17.50
2018-07-02T04:10:30.406Z,18.20
2018-07-02T04:13:05.208Z,19.10
2018-07-02T04:15:40.147Z,18.90
2018-07-02T04:18:15.087Z,18.40
2018-07-02T04:20:49.975Z,18.30
2018-07-02T04:25:59.278Z,17.00
2018-07-02T04:28:34.211Z,15.90
2018-07-02T04:31:09.131Z,15.80
2018-07-02T04:33:44.072Z,15.50
2018-07-02T04:36:19.834Z,15.20
2018-07-02T04:38:54.584Z,15.00
2018-07-02T04:41:30.303Z,15.00
2018-07-02T04:44:05.396Z,15.10
2018-07-02T04:46:40.284Z,15.20
2018-07-02T04:49:15.027Z,15.30
2018-07-02T04:51:49.993Z,15.40
2018-07-02T04:54:24.883Z,15.40
2018-07-02T04:56:59.804Z,15.60
2018-07-02T04:59:34.758Z,16.30
2018-07-02T05:02:09.660Z,17.60
2018-07-02T05:04:44.399Z,19.00
2018-07-02T05:07:19.114Z,20.20
2018-07-02T05:09:53.839Z,20.30
2018-07-02T05:12:28.571Z,19.90
2018-07-02T05:15:03.337Z,19.00
2018-07-02T05:17:38.216Z,18.30
2018-07-02T05:20:12.968Z,17.60
2018-07-02T05:22:47.709Z,17.80
2018-07-02T05:25:22.455Z,19.20
2018-07-02T05:27:57.451Z,20.90
2018-07-02T05:30:32.182Z,22.10
2018-07-02T05:33:07.143Z,21.90
2018-07-02T05:38:16.187Z,21.30
2018-07-02T05:40:50.948Z,21.40
2018-07-02T05:43:25.656Z,21.20
2018-07-02T05:46:00.439Z,21.20
2018-07-02T05:48:35.186Z,21.40
2018-07-02T05:51:10.060Z,21.60
2018-07-02T05:53:44.804Z,21.90
2018-07-02T05:56:19.552Z,22.30
2018-07-02T05:58:54.386Z,23.00
2018-07-02T06:01:30.076Z,24.10
2018-07-02T06:04:05.896Z,24.60
2018-07-02T06:09:14.844Z,24.80
2018-07-02T06:11:50.765Z,25.80
2018-07-02T06:14:25.487Z,25.80
2018-07-02T06:17:04.859Z,25.80
2018-07-02T06:19:39.711Z,25.50
2018-07-02T06:25:02.629Z,24.90
2018-07-02T06:27:37.056Z,25.10
2018-07-02T06:30:11.500Z,24.90
2018-07-02T06:32:46.942Z,24.90
2018-07-02T06:35:21.340Z,25.30
2018-07-02T06:37:56.110Z,25.40
2018-07-02T06:40:31.718Z,25.50
2018-07-02T06:43:19.355Z,26.00
2018-07-02T06:46:10.541Z,26.50
2018-07-02T06:51:20.167Z,26.50
2018-07-02T06:53:54.652Z,26.10
2018-07-02T06:56:29.368Z,25.50
2018-07-02T06:59:09.428Z,24.60
2018-07-02T07:01:45.659Z,24.40
2018-07-02T07:04:21.256Z,24.70
2018-07-02T07:07:00.256Z,24.80
2018-07-02T07:09:37.853Z,25.10
2018-07-02T07:12:12.643Z,25.40
2018-07-02T07:19:58.976Z,27.10
2018-07-02T07:25:07.766Z,27.90
2018-07-02T07:27:42.213Z,28.70
2018-07-02T07:30:16.671Z,28.60
2018-07-02T07:32:51.065Z,28.90
2018-07-02T07:37:59.464Z,28.60
2018-07-02T07:40:33.950Z,28.90
2018-07-02T07:43:08.356Z,29.20
2018-07-02T07:45:42.803Z,28.40
2018-07-02T07:48:17.179Z,27.90
2018-07-02T07:50:52.607Z,27.90
2018-07-02T07:56:01.000Z,28.30
2018-07-02T07:58:35.434Z,28.60
2018-07-02T08:01:10.248Z,28.30
2018-07-02T08:03:44.799Z,28.00
2018-07-02T08:06:19.444Z,28.50
2018-07-02T08:08:53.891Z,29.00
2018-07-02T08:11:28.345Z,29.00
2018-07-02T08:14:03.852Z,29.50
2018-07-02T08:16:38.273Z,29.50
2018-07-02T08:19:12.775Z,29.50
2018-07-02T08:21:47.588Z,29.10
2018-07-02T08:26:57.056Z,28.50
2018-07-02T08:29:32.507Z,28.50
2018-07-02T08:32:06.934Z,28.40
2018-07-02T08:34:41.406Z,28.00
2018-07-02T08:39:49.804Z,27.40
2018-07-02T08:42:24.211Z,27.30
2018-07-02T08:44:58.997Z,27.20
2018-07-02T08:47:43.566Z,27.00
2018-07-02T08:50:24.470Z,26.80
2018-07-02T08:55:48.815Z,27.00
2018-07-02T08:58:25.468Z,26.90
2018-07-02T09:01:18.476Z,26.90
2018-07-02T09:04:00.077Z,26.80
2018-07-02T09:06:34.515Z,26.70
2018-07-02T09:09:16.984Z,26.90
2018-07-02T09:11:52.904Z,26.90
2018-07-02T09:17:20.364Z,26.90
2018-07-02T09:19:56.790Z,26.80
2018-07-02T09:22:39.311Z,26.60
2018-07-02T09:25:13.992Z,26.40
2018-07-02T09:30:32.961Z,26.50
2018-07-02T09:33:10.727Z,26.80
2018-07-02T09:35:52.573Z,27.10
2018-07-02T09:38:49.469Z,27.30
2018-07-02T09:41:35.333Z,27.30
2018-07-02T09:47:03.685Z,26.90
2018-07-02T09:49:41.445Z,26.90
2018-07-02T09:52:25.734Z,27.20
2018-07-02T09:57:49.531Z,27.00
2018-07-02T10:00:34.709Z,27.30
2018-07-02T10:03:24.207Z,27.60
2018-07-02T10:06:02.758Z,27.30
2018-07-02T10:08:45.464Z,27.40
2018-07-02T10:11:23.513Z,27.30
2018-07-02T10:14:05.382Z,27.20
2018-07-02T10:16:44.722Z,27.20
2018-07-02T10:19:22.741Z,26.90
2018-07-02T10:22:20.091Z,26.80
2018-07-02T10:24:54.948Z,26.80
2018-07-02T10:27:29.674Z,26.50
2018-07-02T10:30:04.484Z,26.30
2018-07-02T10:32:40.575Z,26.10
2018-07-02T10:35:16.361Z,26.20
2018-07-02T10:38:05.680Z,26.30
2018-07-02T10:40:46.017Z,26.50
2018-07-02T10:45:59.661Z,26.50
2018-07-02T10:48:34.434Z,26.50
2018-07-02T10:51:09.578Z,26.60
2018-07-02T10:53:44.016Z,26.70
2018-07-02T10:56:29.761Z,26.70
2018-07-02T10:59:04.900Z,26.80
2018-07-02T11:01:39.644Z,26.70
2018-07-02T11:04:14.367Z,26.60
2018-07-02T11:06:49.096Z,26.80
2018-07-02T11:09:32.160Z,27.10
2018-07-02T11:12:35.145Z,27.40
2018-07-02T11:15:29.309Z,27.60
2018-07-02T11:18:17.411Z,27.60
2018-07-02T11:24:18.980Z,27.70
2018-07-02T11:26:54.432Z,27.30
2018-07-02T11:29:29.915Z,27.20
2018-07-02T11:34:40.837Z,27.00
2018-07-02T11:37:15.424Z,27.00
2018-07-02T11:39:49.871Z,27.00
2018-07-02T11:42:25.787Z,26.90
2018-07-02T11:47:58.786Z,26.90
2018-07-02T11:53:25.467Z,26.90
2018-07-02T11:56:04.432Z,26.70
2018-07-02T11:58:42.099Z,26.70
2018-07-02T12:01:16.578Z,26.30
2018-07-02T12:04:03.245Z,26.40
2018-07-02T12:06:58.899Z,26.30
2018-07-02T12:15:48.985Z,25.90
2018-07-02T12:18:35.332Z,25.70
2018-07-02T12:21:23.322Z,25.50
2018-07-02T12:26:54.988Z,25.20
2018-07-02T12:29:34.764Z,25.20
2018-07-02T12:32:13.607Z,25.10
2018-07-02T12:34:53.332Z,25.20
2018-07-02T12:37:31.891Z,25.30
2018-07-02T12:40:08.219Z,25.30
2018-07-02T12:42:47.855Z,25.30
2018-07-02T12:45:25.048Z,25.20
2018-07-02T12:48:01.863Z,25.10
2018-07-02T12:50:42.241Z,25.00
2018-07-02T12:53:19.254Z,24.90
2018-07-02T12:56:01.814Z,24.60
2018-07-02T12:58:39.562Z,24.60
2018-07-02T13:01:14.268Z,24.80
2018-07-02T13:03:48.973Z,24.90
2018-07-02T13:06:24.723Z,24.80
2018-07-02T13:08:59.479Z,24.90
2018-07-02T13:11:49.318Z,24.90
2018-07-02T13:14:25.260Z,24.80
2018-07-02T13:17:02.199Z,24.70
2018-07-02T13:19:36.924Z,24.70
2018-07-02T13:22:11.650Z,24.60
2018-07-02T13:24:46.374Z,24.50
2018-07-02T13:27:26.186Z,24.50
2018-07-02T13:30:00.958Z,24.60
2018-07-02T13:35:10.198Z,24.60
2018-07-02T13:38:18.996Z,24.60
2018-07-02T13:40:53.791Z,24.50
2018-07-02T13:43:29.548Z,24.40
2018-07-02T13:46:06.747Z,24.30
2018-07-02T13:48:43.215Z,24.30
2018-07-02T13:51:24.943Z,24.30
2018-07-02T13:53:59.736Z,24.30
2018-07-02T13:56:35.060Z,24.30
2018-07-02T13:59:09.743Z,24.20
2018-07-02T14:01:45.524Z,24.20
2018-07-02T14:04:20.204Z,24.20
2018-07-02T14:06:56.217Z,24.10
2018-07-02T14:09:31.960Z,24.10
2018-07-02T14:12:06.728Z,24.10
2018-07-02T14:14:42.533Z,24.10
2018-07-02T14:17:17.222Z,24.10
2018-07-02T14:19:52.971Z,24.10
2018-07-02T14:22:27.892Z,24.00
2018-07-02T14:25:03.675Z,24.00
2018-07-02T14:27:38.409Z,24.00
2018-07-02T14:30:14.151Z,23.90
2018-07-02T14:32:55.075Z,23.80
2018-07-02T14:35:55.565Z,23.70
2018-07-02T14:38:36.048Z,23.70
2018-07-02T14:41:29.192Z,23.70
2018-07-02T14:44:21.443Z,23.70
2018-07-02T14:49:47.626Z,23.70
2018-07-02T14:52:37.820Z,23.60
2018-07-02T14:55:28.639Z,23.70
2018-07-02T15:00:49.644Z,23.60
2018-07-02T15:03:39.011Z,23.60
2018-07-02T15:06:13.735Z,23.60
2018-07-02T15:08:49.743Z,23.60
2018-07-02T15:11:26.991Z,23.60
2018-07-02T15:14:01.729Z,23.60
2018-07-02T15:19:10.969Z,23.40
2018-07-02T15:24:24.931Z,23.30
2018-07-02T15:26:59.670Z,23.20
2018-07-02T15:29:37.393Z,23.10
2018-07-02T15:32:12.909Z,23.00
2018-07-02T15:34:47.730Z,23.00
2018-07-02T15:37:22.840Z,23.00
2018-07-02T15:39:59.857Z,22.90
2018-07-02T15:42:34.586Z,22.80
2018-07-02T15:45:13.498Z,22.80
2018-07-02T15:47:48.548Z,22.80
2018-07-02T15:50:23.313Z,22.70
2018-07-02T15:52:58.163Z,22.70
2018-07-02T15:55:43.840Z,22.80
2018-07-02T15:58:18.659Z,22.80
2018-07-02T16:00:53.633Z,22.70
2018-07-02T16:03:28.360Z,22.60
2018-07-02T16:06:04.282Z,22.60
2018-07-02T16:08:38.952Z,22.60
2018-07-02T16:11:13.772Z,22.60
2018-07-02T16:13:48.435Z,22.50
2018-07-02T16:16:23.173Z,22.50
2018-07-02T16:18:57.931Z,22.50
2018-07-02T16:24:09.736Z,22.50
2018-07-02T16:26:44.469Z,22.50
2018-07-02T16:29:19.140Z,22.40
2018-07-02T16:32:11.704Z,22.40
2018-07-02T16:34:57.724Z,22.40
2018-07-02T16:37:32.750Z,22.20
2018-07-02T16:40:07.580Z,22.20
2018-07-02T16:42:42.379Z,22.20
2018-07-02T16:45:17.071Z,22.20
2018-07-02T16:47:52.903Z,22.20
2018-07-02T16:50:27.785Z,22.20
2018-07-02T16:53:04.198Z,22.10
2018-07-02T16:55:38.975Z,22.10
2018-07-02T16:58:13.715Z,22.00
2018-07-02T17:00:49.488Z,21.90
2018-07-02T17:03:25.340Z,21.90
2018-07-02T17:06:00.628Z,21.90
2018-07-02T17:08:35.359Z,21.90
2018-07-02T17:11:10.134Z,21.80
2018-07-02T17:13:44.888Z,21.80
2018-07-02T17:16:19.884Z,21.80
2018-07-02T17:18:54.634Z,21.70
2018-07-02T17:21:29.401Z,21.70
2018-07-02T17:24:04.459Z,21.70
2018-07-02T17:26:39.276Z,21.70
2018-07-02T17:29:14.006Z,21.70
2018-07-02T17:31:48.807Z,21.70
2018-07-02T17:34:23.572Z,21.60
2018-07-02T17:36:58.323Z,21.60
2018-07-02T17:39:33.029Z,21.50
2018-07-02T17:44:42.131Z,21.40
2018-07-02T17:47:16.909Z,21.40
2018-07-02T17:49:51.620Z,21.40
2018-07-02T17:55:00.580Z,21.30
2018-07-02T17:57:35.361Z,21.20
2018-07-02T18:00:10.099Z,21.20
2018-07-02T18:02:44.848Z,21.20
2018-07-02T18:07:53.916Z,21.00
2018-07-02T18:10:29.675Z,21.00
2018-07-02T18:13:04.447Z,21.00
2018-07-02T18:15:39.519Z,20.90
2018-07-02T18:18:14.303Z,20.80
2018-07-02T18:20:49.036Z,20.80
2018-07-02T18:23:23.795Z,20.70
2018-07-02T18:25:59.528Z,20.70
2018-07-02T18:31:08.961Z,20.60
2018-07-02T18:33:43.832Z,20.60
2018-07-02T18:36:18.614Z,20.50
2018-07-02T18:39:06.906Z,20.50
2018-07-02T18:42:03.507Z,20.50
2018-07-02T18:44:38.271Z,20.40
2018-07-02T18:47:28.681Z,20.40
2018-07-02T19:04:07.695Z,19.90
2018-07-02T19:07:04.594Z,19.80
2018-07-02T19:26:56.310Z,19.10
2018-07-02T19:29:36.092Z,19.00
2018-07-02T19:34:45.125Z,18.40
2018-07-02T19:37:19.906Z,18.30
2018-07-02T19:39:54.636Z,18.30
2018-07-02T19:42:29.390Z,18.20
2018-07-02T19:45:04.290Z,18.10
2018-07-02T19:47:39.035Z,18.00
2018-07-02T19:52:47.987Z,17.90
2018-07-02T19:57:57.377Z,17.70
2018-07-02T20:00:32.113Z,17.70
2018-07-02T20:03:07.119Z,17.60
2018-07-02T20:05:42.878Z,17.50
2018-07-02T20:08:18.040Z,17.40
2018-07-02T20:10:52.860Z,17.30
2018-07-02T20:13:27.608Z,17.30
2018-07-02T20:16:08.411Z,17.20
2018-07-02T20:18:43.291Z,17.20
2018-07-02T20:21:18.259Z,17.10
2018-07-02T20:24:07.518Z,17.00
2018-07-02T20:26:42.382Z,16.90
2018-07-02T20:29:17.296Z,16.80
2018-07-02T20:37:37.518Z,16.70
2018-07-02T20:40:35.360Z,16.70
2018-07-02T20:43:10.212Z,16.60
2018-07-02T20:45:44.935Z,16.60
2018-07-02T20:48:26.067Z,16.50
2018-07-02T20:51:01.796Z,16.40
2018-07-02T20:53:36.666Z,16.30
2018-07-02T20:56:15.512Z,16.20
2018-07-02T21:01:32.543Z,16.00
2018-07-02T21:04:09.192Z,15.90
2018-07-02T21:06:45.478Z,15.80
2018-07-02T21:12:32.407Z,15.60
2018-07-02T21:15:35.358Z,15.50
2018-07-02T21:18:53.463Z,15.40
2018-07-02T21:21:32.545Z,15.30
2018-07-02T23:40:12.673Z,15.00
2018-07-02T23:42:51.589Z,11.90
2018-07-02T23:50:38.698Z,11.70
2018-07-02T23:53:13.137Z,11.70
2018-07-02T23:55:48.364Z,11.70
2018-07-02T23:58:22.521Z,11.70
